createdAt,value
2017-08-09T00:00:46.551Z,998.01
2017-08-09T00:01:47.982Z,998.07
2017-08-09T00:02:49.981Z,998.00
2017-08-09T00:03:51.932Z,998.09
2017-08-09T00:04:54.232Z,998.09
2017-08-09T00:05:56.530Z,998.07
2017-08-09T00:06:58.899Z,998.07
2017-08-09T00:08:00.335Z,998.09
2017-08-09T00:09:02.622Z,998.08
2017-08-09T00:10:04.837Z,998.08
2017-08-09T00:11:06.267Z,998.08
2017-08-09T00:12:08.389Z,998.04
2017-08-09T00:13:10.648Z,998.10
2017-08-09T00:14:12.846Z,998.07
2017-08-09T00:15:14.275Z,998.11
2017-08-09T00:16:16.602Z,998.16
2017-08-09T00:17:18.846Z,998.14
2017-08-09T00:18:20.274Z,998.20
2017-08-09T00:19:22.519Z,998.20
2017-08-09T00:20:24.820Z,998.18
2017-08-09T00:21:26.246Z,998.19
2017-08-09T00:22:28.150Z,998.24
2017-08-09T00:23:30.494Z,998.25
2017-08-09T00:24:32.682Z,998.22
2017-08-09T00:25:34.900Z,998.23
2017-08-09T00:26:36.328Z,998.22
2017-08-09T00:27:38.465Z,998.22
2017-08-09T00:28:40.528Z,998.20
2017-08-09T00:29:42.548Z,998.19
2017-08-09T00:30:44.620Z,998.19
2017-08-09T00:31:47.028Z,998.15
2017-08-09T00:32:49.356Z,998.16
2017-08-09T00:33:50.784Z,998.12
2017-08-09T00:34:53.021Z,998.05
2017-08-09T00:35:55.112Z,998.02
2017-08-09T00:36:57.169Z,998.00
2017-08-09T00:37:59.156Z,997.96
2017-08-09T00:39:01.361Z,998.00
2017-08-09T00:40:02.782Z,997.99
2017-08-09T00:41:05.113Z,997.99
2017-08-09T00:42:07.184Z,998.04
2017-08-09T00:43:09.206Z,998.04
2017-08-09T00:44:11.357Z,998.04
2017-08-09T00:45:12.784Z,998.00
2017-08-09T00:46:14.673Z,998.02
2017-08-09T00:47:16.657Z,998.01
2017-08-09T00:48:18.632Z,998.03
2017-08-09T00:49:20.648Z,997.95
2017-08-09T00:50:22.612Z,998.02
2017-08-09T00:51:24.635Z,997.99
2017-08-09T00:52:26.608Z,998.02
2017-08-09T00:53:28.834Z,998.04
2017-08-09T00:54:31.107Z,998.06
2017-08-09T00:55:33.228Z,998.12
2017-08-09T00:56:35.506Z,998.15
2017-08-09T00:57:36.938Z,998.15
2017-08-09T00:58:38.996Z,998.15
2017-08-09T00:59:40.994Z,998.18
2017-08-09T01:00:43.043Z,998.17
2017-08-09T01:01:45.028Z,998.22
2017-08-09T01:02:47.170Z,998.20
2017-08-09T01:03:49.206Z,998.22
2017-08-09T01:04:51.427Z,998.23
2017-08-09T01:05:52.846Z,998.28
2017-08-09T01:06:54.977Z,998.23
2017-08-09T01:07:57.149Z,998.26
2017-08-09T01:08:59.385Z,998.28
2017-08-09T01:10:00.806Z,998.24
2017-08-09T01:11:03.007Z,998.25
2017-08-09T01:12:05.207Z,998.24
2017-08-09T01:13:06.640Z,998.26
2017-08-09T01:14:08.615Z,998.26
2017-08-09T01:15:10.639Z,998.27
2017-08-09T01:16:12.718Z,998.28
2017-08-09T01:17:14.738Z,998.28
2017-08-09T01:18:16.733Z,998.28
2017-08-09T01:19:19.139Z,998.27
2017-08-09T01:20:20.568Z,998.29
2017-08-09T01:21:22.579Z,998.26
2017-08-09T01:22:24.936Z,998.28
2017-08-09T01:23:27.247Z,998.31
2017-08-09T01:24:29.472Z,998.31
2017-08-09T01:25:30.898Z,998.28
2017-08-09T01:26:33.233Z,998.23
2017-08-09T01:27:35.491Z,998.23
2017-08-09T01:28:36.925Z,998.22
2017-08-09T01:29:39.236Z,998.24
2017-08-09T01:30:40.657Z,998.23
2017-08-09T01:31:43.023Z,998.21
2017-08-09T01:32:45.239Z,998.21
2017-08-09T01:33:47.194Z,998.21
2017-08-09T01:34:49.593Z,998.26
2017-08-09T01:35:51.752Z,998.22
2017-08-09T01:36:53.747Z,998.29
2017-08-09T01:37:55.739Z,998.31
2017-08-09T01:38:58.118Z,998.30
2017-08-09T01:40:00.249Z,998.36
2017-08-09T01:41:02.506Z,998.29
2017-08-09T01:42:04.499Z,998.34
2017-08-09T01:43:06.470Z,998.28
2017-08-09T01:44:07.893Z,998.33
2017-08-09T01:45:09.970Z,998.36
2017-08-09T01:46:12.000Z,998.37
2017-08-09T01:47:14.068Z,998.41
2017-08-09T01:48:16.478Z,998.40
2017-08-09T01:49:18.785Z,998.40
2017-08-09T01:50:20.218Z,998.40
2017-08-09T01:51:22.191Z,998.44
2017-08-09T01:52:24.208Z,998.41
2017-08-09T01:53:26.275Z,998.41
2017-08-09T01:54:28.303Z,998.48
2017-08-09T01:55:30.305Z,998.46
2017-08-09T01:56:32.336Z,998.48
2017-08-09T01:57:34.497Z,998.45
2017-08-09T01:58:35.924Z,998.45
2017-08-09T01:59:38.295Z,998.46
2017-08-09T02:00:39.721Z,998.40
2017-08-09T02:01:41.158Z,998.44
2017-08-09T02:02:42.577Z,998.39
2017-08-09T02:03:44.008Z,998.40
2017-08-09T02:04:45.429Z,998.42
2017-08-09T02:05:46.853Z,998.47
2017-08-09T02:06:48.271Z,998.43
2017-08-09T02:07:49.695Z,998.46
2017-08-09T02:08:51.116Z,998.41
2017-08-09T02:09:52.550Z,998.45
2017-08-09T02:10:53.954Z,998.48
2017-08-09T02:11:55.372Z,998.43
2017-08-09T02:12:56.796Z,998.46
2017-08-09T02:13:58.223Z,998.49
2017-08-09T02:14:59.669Z,998.44
2017-08-09T02:16:01.072Z,998.45
2017-08-09T02:17:02.502Z,998.46
2017-08-09T02:18:03.920Z,998.43
2017-08-09T02:19:05.352Z,998.42
2017-08-09T02:20:06.776Z,998.46
2017-08-09T02:21:08.197Z,998.42
2017-08-09T02:22:09.647Z,998.44
2017-08-09T02:23:11.084Z,998.45
2017-08-09T02:24:12.511Z,998.42
2017-08-09T02:25:13.936Z,998.39
2017-08-09T02:26:15.446Z,998.39
2017-08-09T02:27:16.868Z,998.41
2017-08-09T02:28:18.288Z,998.39
2017-08-09T02:29:19.717Z,998.44
2017-08-09T02:30:21.155Z,998.46
2017-08-09T02:31:22.578Z,998.45
2017-08-09T02:32:24.003Z,998.47
2017-08-09T02:33:25.438Z,998.46
2017-08-09T02:34:26.859Z,998.50
2017-08-09T02:35:28.283Z,998.51
2017-08-09T02:36:29.708Z,998.50
2017-08-09T02:37:31.129Z,998.47
2017-08-09T02:38:32.546Z,998.50
2017-08-09T02:39:33.970Z,998.50
2017-08-09T02:40:35.393Z,998.55
2017-08-09T02:41:36.816Z,998.55
2017-08-09T02:42:38.234Z,998.54
2017-08-09T02:43:39.665Z,998.58
2017-08-09T02:44:41.094Z,998.57
2017-08-09T02:45:42.516Z,998.60
2017-08-09T02:46:43.936Z,998.59
2017-08-09T02:47:45.359Z,998.65
2017-08-09T02:48:46.781Z,998.64
2017-08-09T02:49:48.198Z,998.65
2017-08-09T02:50:49.620Z,998.67
2017-08-09T02:51:51.052Z,998.64
2017-08-09T02:52:52.492Z,998.65
2017-08-09T02:53:53.909Z,998.64
2017-08-09T02:54:55.337Z,998.69
2017-08-09T02:55:56.766Z,998.69
2017-08-09T02:56:58.197Z,998.76
2017-08-09T02:57:59.616Z,998.75
2017-08-09T02:59:01.041Z,998.72
2017-08-09T03:00:02.462Z,998.71
2017-08-09T03:01:03.891Z,998.76
2017-08-09T03:02:05.301Z,998.70
2017-08-09T03:03:06.729Z,998.71
2017-08-09T03:04:08.154Z,998.71
2017-08-09T03:05:09.572Z,998.70
2017-08-09T03:06:10.993Z,998.71
2017-08-09T03:07:12.413Z,998.75
2017-08-09T03:08:13.847Z,998.71
2017-08-09T03:09:15.267Z,998.77
2017-08-09T03:10:16.689Z,998.75
2017-08-09T03:11:18.106Z,998.79
2017-08-09T03:12:19.537Z,998.74
2017-08-09T03:13:21.835Z,998.78
2017-08-09T03:14:23.264Z,998.73
2017-08-09T03:15:24.687Z,998.74
2017-08-09T03:16:26.114Z,998.75
2017-08-09T03:17:27.538Z,998.79
2017-08-09T03:18:28.964Z,998.74
2017-08-09T03:19:30.391Z,998.74
2017-08-09T03:20:31.814Z,998.75
2017-08-09T03:21:33.249Z,998.76
2017-08-09T03:22:34.672Z,998.80
2017-08-09T03:23:36.094Z,998.82
2017-08-09T03:24:37.528Z,998.81
2017-08-09T03:25:38.954Z,998.82
2017-08-09T03:26:40.377Z,998.87
2017-08-09T03:27:41.801Z,998.85
2017-08-09T03:28:43.227Z,998.88
2017-08-09T03:29:44.646Z,998.89
2017-08-09T03:30:46.072Z,998.87
2017-08-09T03:31:47.497Z,998.91
2017-08-09T03:32:48.916Z,998.92
2017-08-09T03:33:50.336Z,998.94
2017-08-09T03:34:51.758Z,998.91
2017-08-09T03:35:53.177Z,998.95
2017-08-09T03:36:54.597Z,998.95
2017-08-09T03:37:56.023Z,998.95
2017-08-09T03:38:57.441Z,999.00
2017-08-09T03:39:58.870Z,998.98
2017-08-09T03:41:00.285Z,998.99
2017-08-09T03:42:01.717Z,999.02
2017-08-09T03:43:03.143Z,999.05
2017-08-09T03:44:04.567Z,999.08
2017-08-09T03:45:06.007Z,999.11
2017-08-09T03:46:07.431Z,999.15
2017-08-09T03:47:08.867Z,999.11
2017-08-09T03:48:10.286Z,999.12
2017-08-09T03:49:11.715Z,999.16
2017-08-09T03:50:13.149Z,999.14
2017-08-09T03:51:14.578Z,999.15
2017-08-09T03:52:16.002Z,999.16
2017-08-09T03:53:17.427Z,999.15
2017-08-09T03:54:18.847Z,999.19
2017-08-09T03:55:20.281Z,999.21
2017-08-09T03:56:21.709Z,999.23
2017-08-09T03:57:23.129Z,999.25
2017-08-09T03:58:24.561Z,999.20
2017-08-09T03:59:25.978Z,999.20
2017-08-09T04:00:27.397Z,999.17
2017-08-09T04:01:28.821Z,999.23
2017-08-09T04:02:30.257Z,999.25
2017-08-09T04:03:31.662Z,999.20
2017-08-09T04:04:33.087Z,999.24
2017-08-09T04:05:34.510Z,999.26
2017-08-09T04:06:35.934Z,999.30
2017-08-09T04:07:37.354Z,999.30
2017-08-09T04:08:38.779Z,999.28
2017-08-09T04:09:40.210Z,999.33
2017-08-09T04:10:41.640Z,999.35
2017-08-09T04:11:43.060Z,999.34
2017-08-09T04:12:44.487Z,999.39
2017-08-09T04:13:45.913Z,999.39
2017-08-09T04:14:47.339Z,999.44
2017-08-09T04:15:48.772Z,999.45
2017-08-09T04:16:50.198Z,999.42
2017-08-09T04:17:51.617Z,999.44
2017-08-09T04:18:53.051Z,999.45
2017-08-09T04:19:54.467Z,999.50
2017-08-09T04:20:55.898Z,999.49
2017-08-09T04:21:57.326Z,999.44
2017-08-09T04:22:58.745Z,999.45
2017-08-09T04:24:00.170Z,999.46
2017-08-09T04:25:01.589Z,999.47
2017-08-09T04:26:03.009Z,999.49
2017-08-09T04:27:04.437Z,999.47
2017-08-09T04:28:05.856Z,999.45
2017-08-09T04:29:07.281Z,999.45
2017-08-09T04:30:08.707Z,999.49
2017-08-09T04:31:10.135Z,999.47
2017-08-09T04:32:11.570Z,999.42
2017-08-09T04:33:12.990Z,999.42
2017-08-09T04:34:14.430Z,999.41
2017-08-09T04:35:16.359Z,999.45
2017-08-09T04:36:17.894Z,999.44
2017-08-09T04:37:19.381Z,999.50
2017-08-09T04:38:20.809Z,999.49
2017-08-09T04:39:22.241Z,999.49
2017-08-09T04:40:23.666Z,999.47
2017-08-09T04:41:25.098Z,999.52
2017-08-09T04:42:26.519Z,999.47
2017-08-09T04:43:27.978Z,999.51
2017-08-09T04:44:29.406Z,999.50
2017-08-09T04:45:30.833Z,999.51
2017-08-09T04:46:32.256Z,999.52
2017-08-09T04:47:33.757Z,999.52
2017-08-09T04:48:35.272Z,999.49
2017-08-09T04:49:36.695Z,999.53
2017-08-09T04:50:38.122Z,999.54
2017-08-09T04:51:40.163Z,999.54
2017-08-09T04:52:41.586Z,999.50
2017-08-09T04:53:43.011Z,999.58
2017-08-09T04:54:44.437Z,999.55
2017-08-09T04:55:45.862Z,999.57
2017-08-09T04:56:47.290Z,999.57
2017-08-09T04:57:48.713Z,999.56
2017-08-09T04:58:50.138Z,999.63
2017-08-09T04:59:51.562Z,999.63
2017-08-09T05:00:52.996Z,999.66
2017-08-09T05:01:54.419Z,999.67
2017-08-09T05:02:55.851Z,999.66
2017-08-09T05:03:57.271Z,999.68
2017-08-09T05:04:58.704Z,999.67
2017-08-09T05:06:00.148Z,999.72
2017-08-09T05:07:01.547Z,999.66
2017-08-09T05:08:02.978Z,999.73
2017-08-09T05:09:04.402Z,999.76
2017-08-09T05:10:05.830Z,999.80
2017-08-09T05:11:07.261Z,999.72
2017-08-09T05:12:08.689Z,999.81
2017-08-09T05:13:10.121Z,999.80
2017-08-09T05:14:11.556Z,999.84
2017-08-09T05:15:12.973Z,999.82
2017-08-09T05:16:14.406Z,999.83
2017-08-09T05:17:15.825Z,999.86
2017-08-09T05:18:17.248Z,999.92
2017-08-09T05:19:18.676Z,999.86
2017-08-09T05:20:20.098Z,999.91
2017-08-09T05:21:21.527Z,999.86
2017-08-09T05:22:22.948Z,999.94
2017-08-09T05:23:24.374Z,999.96
2017-08-09T05:24:25.799Z,999.95
2017-08-09T05:25:27.220Z,999.96
2017-08-09T05:26:28.647Z,999.95
2017-08-09T05:27:30.076Z,1000.02
2017-08-09T05:28:31.566Z,999.99
2017-08-09T05:29:32.991Z,999.96
2017-08-09T05:30:34.424Z,1000.03
2017-08-09T05:31:35.852Z,999.97
2017-08-09T05:32:37.281Z,1000.00
2017-08-09T05:33:38.709Z,1000.04
2017-08-09T05:34:40.137Z,1000.04
2017-08-09T05:35:41.572Z,1000.11
2017-08-09T05:36:42.994Z,1000.16
2017-08-09T05:37:44.424Z,1000.13
2017-08-09T05:38:45.855Z,1000.17
2017-08-09T05:39:47.322Z,1000.15
2017-08-09T05:40:49.330Z,1000.18
2017-08-09T05:41:50.759Z,1000.18
2017-08-09T05:42:52.190Z,1000.21
2017-08-09T05:43:53.625Z,1000.26
2017-08-09T05:44:55.048Z,1000.25
2017-08-09T05:45:56.482Z,1000.26
2017-08-09T05:46:57.911Z,1000.26
2017-08-09T05:47:59.342Z,1000.28
2017-08-09T05:49:00.779Z,1000.31
2017-08-09T05:50:02.212Z,1000.39
2017-08-09T05:51:03.642Z,1000.38
2017-08-09T05:52:05.069Z,1000.37
2017-08-09T05:53:06.503Z,1000.41
2017-08-09T05:54:07.939Z,1000.43
2017-08-09T05:55:09.368Z,1000.45
2017-08-09T05:56:10.806Z,1000.44
2017-08-09T05:57:12.231Z,1000.48
2017-08-09T05:58:13.654Z,1000.42
2017-08-09T05:59:15.088Z,1000.51
2017-08-09T06:00:16.522Z,1000.47
2017-08-09T06:01:17.953Z,1000.50
2017-08-09T06:02:19.378Z,1000.49
2017-08-09T06:03:20.812Z,1000.53
2017-08-09T06:04:22.246Z,1000.53
2017-08-09T06:05:23.666Z,1000.55
2017-08-09T06:06:25.100Z,1000.57
2017-08-09T06:07:26.534Z,1000.60
2017-08-09T06:08:27.962Z,1000.66
2017-08-09T06:09:29.388Z,1000.65
2017-08-09T06:10:30.815Z,1000.63
2017-08-09T06:11:32.254Z,1000.65
2017-08-09T06:12:33.690Z,1000.65
2017-08-09T06:13:35.131Z,1000.64
2017-08-09T06:14:36.562Z,1000.61
2017-08-09T06:15:37.992Z,1000.65
2017-08-09T06:16:39.481Z,1000.68
2017-08-09T06:17:40.922Z,1000.81
2017-08-09T06:18:42.350Z,1000.78
2017-08-09T06:19:43.780Z,1000.92
2017-08-09T06:20:45.212Z,1000.93
2017-08-09T06:21:46.640Z,1000.96
2017-08-09T06:22:48.070Z,1001.06
2017-08-09T06:23:49.501Z,1001.09
2017-08-09T06:24:50.922Z,1001.13
2017-08-09T06:25:52.347Z,1001.14
2017-08-09T06:26:53.839Z,1001.21
2017-08-09T06:27:55.380Z,1001.23
2017-08-09T06:28:57.651Z,1001.18
2017-08-09T06:29:59.091Z,1001.16
2017-08-09T06:31:00.526Z,1001.11
2017-08-09T06:32:01.950Z,1001.22
2017-08-09T06:33:03.380Z,1001.18
2017-08-09T06:34:04.808Z,1001.04
2017-08-09T06:35:06.247Z,1001.04
2017-08-09T06:36:07.670Z,1001.19
2017-08-09T06:37:09.099Z,1001.18
2017-08-09T06:38:10.562Z,1001.11
2017-08-09T06:39:11.968Z,1001.11
2017-08-09T06:40:13.406Z,1001.19
2017-08-09T06:41:14.835Z,1001.18
2017-08-09T06:42:16.261Z,1001.20
2017-08-09T06:43:17.692Z,1001.19
2017-08-09T06:44:19.119Z,1001.25
2017-08-09T06:45:20.549Z,1001.23
2017-08-09T06:46:21.976Z,1001.26
2017-08-09T06:47:23.399Z,1001.39
2017-08-09T06:48:24.831Z,1001.41
2017-08-09T06:49:26.256Z,1001.38
2017-08-09T06:50:27.679Z,1001.30
2017-08-09T06:51:29.104Z,1001.36
2017-08-09T06:52:30.530Z,1001.34
2017-08-09T06:53:31.959Z,1001.36
2017-08-09T06:54:33.384Z,1001.34
2017-08-09T06:55:34.819Z,1001.29
2017-08-09T06:56:36.249Z,1001.27
2017-08-09T06:57:37.680Z,1001.29
2017-08-09T06:58:39.102Z,1001.30
2017-08-09T06:59:40.528Z,1001.45
2017-08-09T07:00:41.961Z,1001.40
2017-08-09T07:01:43.394Z,1001.49
2017-08-09T07:02:44.817Z,1001.37
2017-08-09T07:03:46.244Z,1001.49
2017-08-09T07:04:47.682Z,1001.52
2017-08-09T07:05:50.343Z,1001.47
2017-08-09T07:06:51.765Z,1001.39
2017-08-09T07:07:53.204Z,1001.53
2017-08-09T07:08:54.634Z,1001.52
2017-08-09T07:09:56.055Z,1001.38
2017-08-09T07:10:57.479Z,1001.40
2017-08-09T07:11:58.911Z,1001.59
2017-08-09T07:13:00.349Z,1001.58
2017-08-09T07:14:01.786Z,1001.55
2017-08-09T07:15:03.213Z,1001.67
2017-08-09T07:16:04.645Z,1001.77
2017-08-09T07:17:06.068Z,1001.95
2017-08-09T07:18:07.495Z,1001.94
2017-08-09T07:19:08.919Z,1001.96
2017-08-09T07:20:10.350Z,1001.97
2017-08-09T07:21:11.807Z,1001.95
2017-08-09T07:22:13.208Z,1001.88
2017-08-09T07:23:14.632Z,1001.93
2017-08-09T07:24:16.062Z,1002.00
2017-08-09T07:25:17.489Z,1002.09
2017-08-09T07:26:18.918Z,1001.98
2017-08-09T07:27:20.358Z,1002.07
2017-08-09T07:28:21.784Z,1002.26
2017-08-09T07:29:23.209Z,1002.27
2017-08-09T07:30:24.642Z,1002.44
2017-08-09T07:31:26.067Z,1002.49
2017-08-09T07:32:27.506Z,1002.66
2017-08-09T07:33:28.938Z,1002.41
2017-08-09T07:34:30.375Z,1002.57
2017-08-09T07:35:31.804Z,1002.45
2017-08-09T07:36:33.235Z,1002.52
2017-08-09T07:37:34.660Z,1002.58
2017-08-09T07:38:36.092Z,1002.53
2017-08-09T07:39:37.522Z,1002.54
2017-08-09T07:40:38.951Z,1002.38
2017-08-09T07:41:40.383Z,1002.69
2017-08-09T07:42:41.814Z,1002.67
2017-08-09T07:43:43.242Z,1002.60
2017-08-09T07:44:44.675Z,1002.81
2017-08-09T07:45:46.106Z,1003.02
2017-08-09T07:46:47.543Z,1003.07
2017-08-09T07:47:48.977Z,1003.10
2017-08-09T07:48:50.395Z,1002.96
2017-08-09T07:49:51.827Z,1002.98
2017-08-09T07:50:53.255Z,1003.32
2017-08-09T07:51:54.694Z,1003.41
2017-08-09T07:52:56.113Z,1003.42
2017-08-09T07:53:57.553Z,1003.38
2017-08-09T07:54:58.987Z,1003.39
2017-08-09T07:56:00.412Z,1003.27
2017-08-09T07:57:01.866Z,1003.35
2017-08-09T07:58:03.395Z,1003.32
2017-08-09T07:59:04.842Z,1003.30
2017-08-09T08:00:06.243Z,1003.37
2017-08-09T08:01:07.701Z,1003.39
2017-08-09T08:02:09.146Z,1003.36
2017-08-09T08:03:10.574Z,1003.43
2017-08-09T08:04:12.004Z,1003.60
2017-08-09T08:05:13.462Z,1003.59
2017-08-09T08:06:14.893Z,1003.65
2017-08-09T08:07:16.346Z,1003.67
2017-08-09T08:08:17.786Z,1003.74
2017-08-09T08:09:19.227Z,1003.70
2017-08-09T08:10:20.658Z,1003.74
2017-08-09T08:11:22.094Z,1003.74
2017-08-09T08:12:23.524Z,1003.74
2017-08-09T08:13:24.963Z,1003.81
2017-08-09T08:14:26.389Z,1003.74
2017-08-09T08:15:27.826Z,1003.80
2017-08-09T08:16:29.265Z,1003.88
2017-08-09T08:17:30.696Z,1003.95
2017-08-09T08:18:33.387Z,1003.85
2017-08-09T08:19:34.815Z,1003.83
2017-08-09T08:20:36.241Z,1003.88
2017-08-09T08:21:37.676Z,1003.91
2017-08-09T08:22:39.110Z,1003.90
2017-08-09T08:23:40.545Z,1003.89
2017-08-09T08:24:41.972Z,1003.94
2017-08-09T08:25:43.473Z,1003.93
2017-08-09T08:26:44.905Z,1003.99
2017-08-09T08:27:46.332Z,1003.98
2017-08-09T08:28:47.764Z,1004.02
2017-08-09T08:29:49.190Z,1003.98
2017-08-09T08:30:50.626Z,1003.97
2017-08-09T08:31:52.064Z,1003.76
2017-08-09T08:32:53.534Z,1003.96
2017-08-09T08:33:54.971Z,1003.77
2017-08-09T08:34:56.405Z,1003.83
2017-08-09T08:35:57.843Z,1003.78
2017-08-09T08:36:59.288Z,1003.83
2017-08-09T08:38:00.716Z,1003.91
2017-08-09T08:39:02.149Z,1003.92
2017-08-09T08:40:03.582Z,1004.00
2017-08-09T08:41:05.013Z,1003.97
2017-08-09T08:42:06.545Z,1004.03
2017-08-09T08:43:07.985Z,1004.08
2017-08-09T08:44:09.414Z,1004.07
2017-08-09T08:45:10.848Z,1004.11
2017-08-09T08:46:12.276Z,1004.12
2017-08-09T08:47:13.717Z,1004.15
2017-08-09T08:48:15.148Z,1004.20
2017-08-09T08:49:16.579Z,1004.16
2017-08-09T08:50:18.015Z,1004.14
2017-08-09T08:51:19.445Z,1004.16
2017-08-09T08:52:20.887Z,1004.11
2017-08-09T08:53:22.322Z,1004.17
2017-08-09T08:54:23.769Z,1004.21
2017-08-09T08:55:25.204Z,1004.26
2017-08-09T08:56:26.632Z,1004.30
2017-08-09T08:57:28.061Z,1004.32
2017-08-09T08:58:29.494Z,1004.30
2017-08-09T08:59:30.934Z,1004.40
2017-08-09T09:00:32.362Z,1004.32
2017-08-09T09:01:33.815Z,1004.46
2017-08-09T09:02:35.260Z,1004.48
2017-08-09T09:03:36.702Z,1004.54
2017-08-09T09:04:38.130Z,1004.49
2017-08-09T09:05:39.559Z,1004.54
2017-08-09T09:06:40.996Z,1004.52
2017-08-09T09:07:42.436Z,1004.57
2017-08-09T09:08:43.861Z,1004.66
2017-08-09T09:09:45.293Z,1004.64
2017-08-09T09:10:46.722Z,1004.68
2017-08-09T09:11:48.156Z,1004.66
2017-08-09T09:12:49.590Z,1004.65
2017-08-09T09:13:51.021Z,1004.65
2017-08-09T09:14:52.472Z,1004.68
2017-08-09T09:15:53.901Z,1004.66
2017-08-09T09:16:55.334Z,1004.69
2017-08-09T09:17:56.765Z,1004.69
2017-08-09T09:18:58.198Z,1004.70
2017-08-09T09:19:59.633Z,1004.66
2017-08-09T09:21:01.069Z,1004.72
2017-08-09T09:22:02.502Z,1004.70
2017-08-09T09:23:03.928Z,1004.68
2017-08-09T09:24:05.377Z,1004.75
2017-08-09T09:25:06.805Z,1004.75
2017-08-09T09:26:08.234Z,1004.72
2017-08-09T09:27:09.664Z,1004.77
2017-08-09T09:28:11.098Z,1004.77
2017-08-09T09:29:12.534Z,1004.83
2017-08-09T09:30:13.971Z,1004.87
2017-08-09T09:31:15.393Z,1004.94
2017-08-09T09:32:16.837Z,1004.91
2017-08-09T09:33:18.316Z,1004.96
2017-08-09T09:34:19.750Z,1005.00
2017-08-09T09:35:21.170Z,1004.98
2017-08-09T09:36:22.599Z,1004.98
2017-08-09T09:37:24.033Z,1004.97
2017-08-09T09:38:25.466Z,1005.04
2017-08-09T09:39:26.898Z,1005.05
2017-08-09T09:40:28.339Z,1005.06
2017-08-09T09:41:29.769Z,1005.06
2017-08-09T09:42:31.202Z,1005.11
2017-08-09T09:43:32.642Z,1005.02
2017-08-09T09:44:34.073Z,1005.01
2017-08-09T09:45:35.512Z,1005.03
2017-08-09T09:46:36.934Z,1005.06
2017-08-09T09:47:38.363Z,1005.01
2017-08-09T09:48:39.796Z,1005.00
2017-08-09T09:49:41.229Z,1005.00
2017-08-09T09:50:42.653Z,1005.03
2017-08-09T09:51:44.086Z,1004.99
2017-08-09T09:52:45.514Z,1005.06
2017-08-09T09:53:46.946Z,1005.06
2017-08-09T09:54:48.379Z,1005.03
2017-08-09T09:55:49.814Z,1005.04
2017-08-09T09:56:51.241Z,1005.08
2017-08-09T09:57:52.678Z,1005.08
2017-08-09T09:58:54.118Z,1005.03
2017-08-09T09:59:55.555Z,1005.06
2017-08-09T10:00:56.981Z,1005.07
2017-08-09T10:01:58.417Z,1005.09
2017-08-09T10:02:59.851Z,1005.09
2017-08-09T10:04:01.285Z,1005.11
2017-08-09T10:05:02.714Z,1005.09
2017-08-09T10:06:04.154Z,1005.11
2017-08-09T10:07:05.599Z,1005.10
2017-08-09T10:08:07.029Z,1005.16
2017-08-09T10:09:08.464Z,1005.18
2017-08-09T10:10:09.895Z,1005.19
2017-08-09T10:11:11.333Z,1005.16
2017-08-09T10:12:12.765Z,1005.25
2017-08-09T10:13:14.194Z,1005.26
2017-08-09T10:14:15.637Z,1005.27
2017-08-09T10:15:17.068Z,1005.32
2017-08-09T10:16:19.202Z,1005.35
2017-08-09T10:17:20.644Z,1005.40
2017-08-09T10:18:22.074Z,1005.45
2017-08-09T10:19:23.524Z,1005.40
2017-08-09T10:20:24.952Z,1005.40
2017-08-09T10:21:26.382Z,1005.44
2017-08-09T10:22:27.819Z,1005.42
2017-08-09T10:23:29.256Z,1005.36
2017-08-09T10:24:30.683Z,1005.34
2017-08-09T10:25:32.114Z,1005.40
2017-08-09T10:26:33.545Z,1005.48
2017-08-09T10:27:34.975Z,1005.53
2017-08-09T10:28:36.410Z,1005.54
2017-08-09T10:29:37.840Z,1005.62
2017-08-09T10:30:39.277Z,1005.58
2017-08-09T10:31:40.710Z,1005.57
2017-08-09T10:32:42.139Z,1005.55
2017-08-09T10:33:43.568Z,1005.59
2017-08-09T10:34:45.011Z,1005.62
2017-08-09T10:35:46.437Z,1005.64
2017-08-09T10:36:47.868Z,1005.73
2017-08-09T10:37:49.300Z,1005.67
2017-08-09T10:38:50.729Z,1005.73
2017-08-09T10:39:52.164Z,1005.72
2017-08-09T10:40:53.606Z,1005.75
2017-08-09T10:41:55.034Z,1005.72
2017-08-09T10:42:56.467Z,1005.81
2017-08-09T10:43:57.897Z,1005.85
2017-08-09T10:44:59.333Z,1005.85
2017-08-09T10:46:00.758Z,1005.87
2017-08-09T10:47:02.209Z,1005.87
2017-08-09T10:48:03.641Z,1005.85
2017-08-09T10:49:05.071Z,1005.96
2017-08-09T10:50:06.513Z,1005.94
2017-08-09T10:51:07.945Z,1005.99
2017-08-09T10:52:09.393Z,1006.05
2017-08-09T10:53:10.818Z,1006.06
2017-08-09T10:54:12.256Z,1006.01
2017-08-09T10:55:13.688Z,1005.92
2017-08-09T10:56:15.125Z,1005.97
2017-08-09T10:57:16.552Z,1005.93
2017-08-09T10:58:17.985Z,1005.96
2017-08-09T10:59:19.422Z,1006.04
2017-08-09T11:00:20.859Z,1005.92
2017-08-09T11:01:22.292Z,1005.93
2017-08-09T11:02:23.730Z,1005.97
2017-08-09T11:03:25.167Z,1006.00
2017-08-09T11:04:26.598Z,1005.94
2017-08-09T11:05:28.041Z,1005.95
2017-08-09T11:06:29.474Z,1006.05
2017-08-09T11:07:30.906Z,1006.07
2017-08-09T11:08:32.342Z,1006.14
2017-08-09T11:09:33.777Z,1006.12
2017-08-09T11:10:35.242Z,1006.07
2017-08-09T11:11:36.669Z,1006.07
2017-08-09T11:12:38.118Z,1006.06
2017-08-09T11:13:39.552Z,1006.01
2017-08-09T11:14:40.994Z,1005.98
2017-08-09T11:15:42.428Z,1006.02
2017-08-09T11:16:43.855Z,1006.01
2017-08-09T11:17:45.289Z,1006.03
2017-08-09T11:18:46.730Z,1006.03
2017-08-09T11:19:48.164Z,1005.97
2017-08-09T11:20:49.601Z,1006.00
2017-08-09T11:21:51.031Z,1005.91
2017-08-09T11:22:52.463Z,1005.94
2017-08-09T11:23:53.908Z,1005.91
2017-08-09T11:24:55.344Z,1005.95
2017-08-09T11:25:56.774Z,1005.91
2017-08-09T11:26:58.214Z,1005.95
2017-08-09T11:27:59.655Z,1005.89
2017-08-09T11:29:01.092Z,1005.93
2017-08-09T11:30:02.525Z,1005.98
2017-08-09T11:31:03.959Z,1005.94
2017-08-09T11:32:05.392Z,1005.93
2017-08-09T11:33:06.826Z,1005.94
2017-08-09T11:34:08.257Z,1005.81
2017-08-09T11:35:09.693Z,1005.88
2017-08-09T11:36:11.127Z,1005.98
2017-08-09T11:37:12.562Z,1006.07
2017-08-09T11:38:13.999Z,1006.07
2017-08-09T11:39:15.461Z,1006.09
2017-08-09T11:40:16.876Z,1006.23
2017-08-09T11:41:18.310Z,1006.13
2017-08-09T11:42:19.746Z,1006.13
2017-08-09T11:43:21.876Z,1006.10
2017-08-09T11:44:23.306Z,1006.05
2017-08-09T11:45:24.740Z,1006.12
2017-08-09T11:46:26.166Z,1006.13
2017-08-09T11:47:27.611Z,1006.15
2017-08-09T11:48:29.046Z,1006.17
2017-08-09T11:49:30.485Z,1006.17
2017-08-09T11:50:31.935Z,1006.22
2017-08-09T11:51:33.348Z,1006.07
2017-08-09T11:52:34.780Z,1006.12
2017-08-09T11:53:36.216Z,1006.15
2017-08-09T11:54:37.653Z,1006.19
2017-08-09T11:55:39.086Z,1006.14
2017-08-09T11:56:40.525Z,1006.20
2017-08-09T11:57:41.976Z,1006.23
2017-08-09T11:58:43.416Z,1006.34
2017-08-09T11:59:44.844Z,1006.35
2017-08-09T12:00:46.280Z,1006.31
2017-08-09T12:01:47.712Z,1006.27
2017-08-09T12:02:49.145Z,1006.23
2017-08-09T12:03:50.582Z,1006.19
2017-08-09T12:04:52.016Z,1006.21
2017-08-09T12:05:53.452Z,1006.24
2017-08-09T12:06:54.890Z,1006.30
2017-08-09T12:07:56.324Z,1006.38
2017-08-09T12:08:57.755Z,1006.34
2017-08-09T12:09:59.189Z,1006.20
2017-08-09T12:11:00.635Z,1006.25
2017-08-09T12:12:02.089Z,1006.29
2017-08-09T12:13:03.523Z,1006.27
2017-08-09T12:14:04.959Z,1006.29
2017-08-09T12:15:06.393Z,1006.28
2017-08-09T12:16:07.831Z,1006.34
2017-08-09T12:17:09.265Z,1006.26
2017-08-09T12:18:10.698Z,1006.33
2017-08-09T12:19:12.128Z,1006.32
2017-08-09T12:20:13.562Z,1006.29
2017-08-09T12:21:14.995Z,1006.30
2017-08-09T12:22:16.433Z,1006.37
2017-08-09T12:23:17.868Z,1006.34
2017-08-09T12:24:19.304Z,1006.31
2017-08-09T12:25:20.735Z,1006.38
2017-08-09T12:26:22.172Z,1006.44
2017-08-09T12:27:23.606Z,1006.48
2017-08-09T12:28:25.047Z,1006.54
2017-08-09T12:29:26.483Z,1006.38
2017-08-09T12:30:27.917Z,1006.51
2017-08-09T12:31:29.357Z,1006.37
2017-08-09T12:32:30.796Z,1006.35
2017-08-09T12:33:32.242Z,1006.43
2017-08-09T12:34:33.678Z,1006.46